Tiempo atmosférico en la estación meteorológica de La Póveda de Soria, Barriomartín, Soria (1260 m.)



Fecha
DESCASC
Temp. máxima en grados centígrados (hora)
DESCASC
Temp. mínima en grados centígrados (hora)
DESCASC
Temp. media en grados centígrados
DESCASC
Racha de viento máxima en m/sg (hora)
DESCASC
Velocidad máxima media en intervalos de 10 minutos(hora)
DESCASC
Precipitaciones diarias en mm
DESCASC
Precipitaciones de 00:00 a 06:00 en mm
DESCASC
Precipitaciones de 06:00 a 12:00 en mm
DESCASC
Precipitaciones de 12:00 a 18:00 en mm
DESCASC
Precipitaciones de 18:00 a 24:00 en mm
DESCASC
29-10-2020 15.9 (14:50) 0.9 (07:10) 8.4 4.44 (13:10) 2.5 (11:40) 0 0 0 0 0
28-10-2020 16.2 (13:50) 2.7 (23:59) 9.5 8.89 (14:50) 5.28 (14:30) 0 0 0 0 0
27-10-2020 12 (15:10) -0.9 (-00:0) 5.6 9.17 (16:50) 5.56 (16:50) 0 0 0 0 0
26-10-2020 8.3 (15:50) -0.8 (-00:0) 3.8 7.78 (11:50) 4.17 (13:50) 0 0 0 0 0
25-10-2020 11.2 (12:20) 2.9 (00:00) 7 13.89 (13:20) 6.67 (12:20) 9.2 0 0 7.4 1.8
24-10-2020 12.6 (15:00) 0.1 (00:00) 6.4 8.89 (20:40) 5.28 (13:00) 0.2 0 0.2 0 0
23-10-2020 11.9 (15:10) 2.3 (00:00) 7.1 8.33 (12:30) 5.28 (14:30) 1.2 1.2 0 0 0
22-10-2020 12.1 (14:10) 8.1 (00:00) 10.1 11.67 (16:20) 5.83 (11:50) 2.6 0 0.2 2.4 0
21-10-2020 13.4 (14:00) 8.8 (00:00) 11.1 21.39 (02:20) 10.56 (02:30) 5 4 0 1 0
20-10-2020 11.8 (01:30) 8.9 (00:00) 10.3 12.5 (23:40) 6.39 (14:20) 19.4 0.2 4.2 14.4 0.6
19-10-2020 19.6 (16:10) -0.8 (-00:0) 9.4 12.5 (15:30) 6.39 (16:00) 0 0 0 0 0
18-10-2020 16.6 (16:30) 1.1 (00:00) 8.9 5.83 (15:10) 3.33 (02:40) 0 0 0 0 0
17-10-2020 14.7 (16:10) -1.2 (-00:0) 6.7 7.22 (18:00) 4.44 (17:50) 0 0 0 0 0
16-10-2020 8.2 (15:20) -0.2 (00:00) 4 12.78 (04:00) 7.78 (04:10) 0 0 0 0 0
15-10-2020 5.6 (15:30) 1.3 (00:00) 3.4 12.22 (19:30) 5.83 (21:20) 2 0 0.2 1.2 0.6
14-10-2020 7.9 (12:50) 3.1 (00:00) 5.5 13.89 (12:10) 8.33 (12:30) 1 0 0.2 0.2 0.6
13-10-2020 12.8 (14:30) 6 (00:00) 9.4 10.56 (06:40) 5.28 (18:20) 0.4 0.4 0 0 0
12-10-2020 9.6 (16:30) 3.6 (00:00) 6.6 13.89 (06:20) 7.5 (07:00) 1.4 1.4 0 0 0
11-10-2020 8.6 (16:00) 3.1 (00:00) 5.9 13.61 (09:20) 7.78 (02:50) 1.8 0 0 0.4 1.4
10-10-2020 13.6 (14:00) 6.3 (00:00) 10 13.89 (21:50) 8.89 (23:00) 0 0 0 0 0
09-10-2020 21.2 (14:20) 6.8 (00:00) 14 7.78 (22:50) 4.72 (23:40) 0 0 0 0 0
08-10-2020 21.6 (16:20) 6.3 (00:00) 14 6.11 (15:00) 3.89 (12:20) 0 0 0 0 0
07-10-2020 18.5 (17:00) 5.5 (00:00) 12 9.72 (13:20) 5.83 (13:20) 0 0 0 0 0
06-10-2020 19.2 (16:10) 4.2 (00:00) 11.7 8.61 (14:10) 5.83 (14:20) 0.2 0 0.2 0 0
05-10-2020 14.7 (16:20) 1.1 (00:00) 7.9 8.33 (16:40) 4.72 (15:00) 0 0 0 0 0
04-10-2020 12.1 (14:40) 3.4 (00:00) 7.8 12.78 (14:20) 5.28 (16:00) 1 0 0.2 0.6 0.2
03-10-2020 10.1 (15:20) 1.4 (00:00) 5.8 10 (05:50) 5.28 (14:30) 0 0 0 0 0
02-10-2020 11.1 (00:00) 0.8 (00:00) 6 15.56 (01:00) 7.78 (01:00) 0.8 0.8 0 0 0
01-10-2020 16.7 (13:00) 5.2 (07:40) 11 15 (23:00) 9.17 (23:00) 0 0 0 0 0

Gráficas

Temp. máximas Temp. mínimas Temp. medias Precipitaciones Rachas de viento máximas Velocidades máximas media en intervalos de 10 minutos

Datos horarios

Fecha y hora oficial Temperatura (ºC) Velocidad del viento (km/h) Dirección del viento Racha (km/h) Dirección de racha Precipitación (mm) Presión (hPa) Tendencia (hPa) Humedad (%)
2020-10-30 23:00:00 2.9 7 Norte 13 Norte 0 -- -- 79
2020-10-30 22:00:00 3.7 6 Norte 10 Norte 0 -- -- 77
2020-10-30 21:00:00 5 7 Norte 13 Norte 0 -- -- 77
2020-10-30 20:00:00 5.8 6 Norte 12 Norte 0 -- -- 78
2020-10-30 19:00:00 7.9 6 Norte 9 Norte 0 -- -- 75
2020-10-30 18:00:00 13.1 4 Sudoeste 13 Sudoeste 0 -- -- 56
2020-10-30 17:00:00 16.7 6 Sur 16 Sudoeste 0 -- -- 48
2020-10-30 16:00:00 18.2 10 Sur 20 Sudoeste 0 -- -- 41
2020-10-30 15:00:00 19.6 13 Sur 25 Sudoeste 0 -- -- 40
2020-10-30 14:00:00 17.6 11 Sudeste 19 Sudeste 0 -- -- 45
2020-10-30 13:00:00 16.6 9 Sur 15 Sudeste 0 -- -- 47
2020-10-30 12:00:00 15.4 5 Sur 11 Sudeste 0 -- -- 50
2020-10-30 11:00:00 13.6 5 Sudeste 8 Sur 0 -- -- 54
2020-10-30 10:00:00 11.3 3 Sudeste 5 Sur 0 -- -- 56
2020-10-30 09:00:00 5.4 4 Norte 13 Norte 0 -- -- 64
2020-10-30 08:00:00 1.7 9 Norte 13 Norte 0 -- -- 72
2020-10-30 07:00:00 1.3 8 Norte 13 Norte 0 -- -- 75
2020-10-30 06:00:00 1.5 8 Norte 13 Norte 0 -- -- 75
2020-10-30 05:00:00 0.8 7 Norte 10 Norte 0 -- -- 78
2020-10-30 04:00:00 1.1 6 Norte 16 Norte 0 -- -- 77
2020-10-30 03:00:00 1.3 6 Norte 14 Norte 0 -- -- 79
2020-10-30 02:00:00 2.1 8 Norte 12 Norte 0 -- -- 82
2020-10-30 01:00:00 3.1 8 Norte 12 Norte 0 -- -- 82
2020-10-30 00:00:00 2.7 8 Norte 12 Norte 0 -- -- 85
2020-10-29 23:00:00 3.7 6 Norte 14 Norte 0 -- -- 83
2020-10-29 22:00:00 3.8 6 Norte 10 Norte 0 -- -- 85
2020-10-29 21:00:00 4.9 6 Norte 12 Norte 0 -- -- 86
2020-10-29 20:00:00 6.2 6 Norte 12 Norte 0 -- -- 88
2020-10-29 19:00:00 8.2 6 Norte 12 Norte 0 -- -- 85
2020-10-29 18:00:00 11.9 2 Norte 11 Sur 0 -- -- 70
2020-10-29 17:00:00 15.1 8 Sur 12 Sudeste 0 -- -- 60
2020-10-29 16:00:00 15.5 4 Sudeste 9 Sudeste 0 -- -- 59
2020-10-29 15:00:00 15.7 5 Sudeste 12 Sur 0 -- -- 60
2020-10-29 14:00:00 14.1 5 Este 16 Sur 0 -- -- 67
2020-10-29 13:00:00 13.9 8 Sur 15 Sur 0 -- -- 69
2020-10-29 12:00:00 12.8 9 Sur 15 Sudeste 0 -- -- 74
2020-10-29 11:00:00 12 4 Sudeste 8 Sudeste 0 -- -- 79
2020-10-29 10:00:00 8.3 0 Calma 7 Norte 0 -- -- 96
2020-10-29 09:00:00 3.5 4 Norte 9 Norte 0 -- -- 96
2020-10-29 08:00:00 1.4 5 Norte 10 Noroeste 0 -- -- 96
2020-10-29 07:00:00 1 3 Norte 10 Noroeste 0 -- -- 94
2020-10-29 06:00:00 2.1 8 Norte 13 Norte 0 -- -- 96
2020-10-29 05:00:00 2.1 4 Norte 11 Norte 0 -- -- 95
2020-10-29 04:00:00 2.5 7 Norte 12 Norte 0 -- -- 95
2020-10-29 03:00:00 2.6 8 Norte 13 Norte 0 -- -- 95
2020-10-29 02:00:00 2.5 5 Norte 13 Norte 0 -- -- 94
2020-10-29 01:00:00 2.8 6 Norte 9 Noroeste 0 -- -- 94
2020-10-29 00:00:00 2.7 5 Norte 12 Noroeste 0 -- -- 91
2020-10-28 23:00:00 3.6 7 Norte 13 Norte 0 -- -- 92
2020-10-28 22:00:00 3.6 9 Norte 12 Norte 0 -- -- 91
2020-10-28 21:00:00 4.9 7 Noroeste 13 Noroeste 0 -- -- 87
2020-10-28 20:00:00 5.8 10 Noroeste 14 Norte 0 -- -- 87
2020-10-28 19:00:00 7 6 Norte 9 Norte 0 -- -- 82
2020-10-28 18:00:00 11.3 2 Sudoeste 20 Oeste 0 -- -- 69
2020-10-28 17:00:00 13.4 12 Oeste 29 Sudoeste 0 -- -- 61
2020-10-28 16:00:00 14.4 17 Sudoeste 28 Oeste 0 -- -- 58
2020-10-28 15:00:00 15.4 18 Oeste 32 Oeste 0 -- -- 57
2020-10-28 14:00:00 16.2 12 Sudoeste 27 Sudoeste 0 -- -- 54
2020-10-28 13:00:00 15.4 17 Sudoeste 29 Noroeste 0 -- -- 56
2020-10-28 12:00:00 14.2 12 Noroeste 28 Sudoeste 0 -- -- 56
2020-10-28 11:00:00 13.1 9 Sur 25 Sur 0 -- -- 77
2020-10-28 10:00:00 9.4 9 Sur 16 Sur 0 -- -- 97
2020-10-28 09:00:00 7.6 3 Noroeste 6 Noroeste 0 -- -- 97
2020-10-28 08:00:00 6.9 0 Calma 5 Oeste 0 -- -- 97
2020-10-28 07:00:00 6.5 2 Noroeste 5 Nordeste 0 -- -- 97
2020-10-28 06:00:00 6.2 3 Norte 6 Nordeste 0 -- -- 96
2020-10-28 05:00:00 6 3 Norte 7 Norte 0 -- -- 97
2020-10-28 04:00:00 5.6 0 Calma 4 Sudeste 0 -- -- 97
2020-10-28 03:00:00 4.7 0 Calma 14 Este 0 -- -- 96
2020-10-28 02:00:00 3.1 0 Calma 11 Norte 0 -- -- 94
2020-10-28 01:00:00 3.4 6 Norte 8 Norte 0 -- -- 95
2020-10-28 00:00:00 3.2 4 Norte 7 Norte 0 -- -- 93
2020-10-27 23:00:00 4.2 2 Oeste 4 Oeste 0 -- -- 91
2020-10-27 22:00:00 5.3 0 Calma 6 Nordeste 0 -- -- 90
2020-10-27 21:00:00 6.2 0 Calma 4 Este 0 -- -- 88
2020-10-27 20:00:00 6.4 2 Sur 6 Sudeste 0 -- -- 86
2020-10-27 19:00:00 6.2 2 Sur 20 Oeste 0 -- -- 84
2020-10-27 18:00:00 7.2 7 Sur 24 Oeste 0 -- -- 81
2020-10-27 17:00:00 7.8 18 Oeste 33 Oeste 0 -- -- 79
2020-10-27 16:00:00 9.9 16 Oeste 29 Oeste 0 -- -- 70
2020-10-27 15:00:00 11.8 7 Oeste 23 Sudoeste 0 -- -- 66
2020-10-27 14:00:00 11 15 Oeste 30 Oeste 0 -- -- 67
2020-10-27 13:00:00 10.5 7 Sudeste 20 Sur 0 -- -- 69
2020-10-27 12:00:00 9.5 4 Sur 18 Sudeste 0 -- -- 70
2020-10-27 11:00:00 6.8 9 Sudeste 17 Sur 0 -- -- 77
2020-10-27 10:00:00 4.5 3 Este 5 Noroeste 0 -- -- 91
2020-10-27 09:00:00 2.2 2 Este 9 Este 0 -- -- 95
2020-10-27 08:00:00 0.2 4 Norte 9 Noroeste 0 -- -- 94
2020-10-27 07:00:00 0.3 3 Norte 9 Oeste 0 -- -- 95
2020-10-27 06:00:00 0.2 0 Calma 5 Oeste 0 -- -- 94
2020-10-27 05:00:00 -0.2 2 Noroeste 8 Norte 0 -- -- 94
2020-10-27 04:00:00 -0.2 4 Norte 7 Norte 0 -- -- 93
2020-10-27 03:00:00 0 6 Norte 11 Norte 0 -- -- 93
2020-10-27 02:00:00 -0.4 6 Norte 8 Norte 0 -- -- 92
2020-10-27 01:00:00 -0.1 0 Calma 12 Oeste 0 -- -- 89
2020-10-27 00:00:00 -0.8 0 Calma 8 Norte 0 -- -- 89
2020-10-26 23:00:00 0.5 5 Norte 9 Oeste 0 -- -- 86
2020-10-26 22:00:00 2.6 4 Oeste 17 Oeste 0 -- -- 81
2020-10-26 21:00:00 1.1 4 Norte 8 Norte 0 -- -- 87
2020-10-26 20:00:00 2 0 Calma 5 Sudoeste 0 -- -- 85
2020-10-26 19:00:00 3.2 3 Sudoeste 9 Sudoeste 0 -- -- 76
2020-10-26 18:00:00 6.1 3 Sur 21 Oeste 0 -- -- 66
2020-10-26 17:00:00 7.5 3 Noroeste 25 Oeste 0 -- -- 60
2020-10-26 16:00:00 8.1 7 Oeste 14 Sudoeste 0 -- -- 58
2020-10-26 15:00:00 7.6 5 Oeste 24 Oeste 0 -- -- 66
2020-10-26 14:00:00 7 12 Norte 28 Noroeste 0 -- -- 61
2020-10-26 13:00:00 7.4 6 Noroeste 23 Noroeste 0 -- -- 62
2020-10-26 12:00:00 7.3 9 Noroeste 28 Noroeste 0 -- -- 62
2020-10-26 11:00:00 6.1 11 Norte 27 Norte 0 -- -- 66
2020-10-26 10:00:00 5.6 7 Norte 19 Norte 0 -- -- 68
2020-10-26 09:00:00 4.1 4 Nordeste 9 Norte 0 -- -- 74
2020-10-26 08:00:00 1 3 Este 9 Norte 0 -- -- 87
2020-10-26 07:00:00 2.1 4 Nordeste 11 Oeste 0 -- -- 81
2020-10-26 06:00:00 1.5 5 Oeste 20 Noroeste 0 -- -- 85
2020-10-26 05:00:00 1.5 0 Calma 23 Noroeste 0 -- -- 86
2020-10-26 04:00:00 1.8 5 Noroeste 25 Noroeste 0 -- -- 85
2020-10-26 03:00:00 1.3 2 Norte 20 Noroeste 0 -- -- 90
2020-10-26 02:00:00 2.4 5 Noroeste 14 Noroeste 0 -- -- 91
2020-10-26 01:00:00 2.6 0 Calma 19 Oeste 0 -- -- 88
2020-10-26 00:00:00 2.9 10 Noroeste 23 Noroeste 0 -- -- 87
2020-10-25 23:00:00 4.3 12 Oeste 21 Oeste 0 -- -- 86
2020-10-25 22:00:00 5.8 8 Noroeste 23 Oeste 0 -- -- 84
2020-10-25 21:00:00 6.1 12 Noroeste 29 Oeste 0 -- -- 88
2020-10-25 20:00:00 6.4 17 Oeste 33 Oeste 0 -- -- 84
2020-10-25 19:00:00 8.2 9 Oeste 36 Sudoeste 1.8 -- -- 94
2020-10-25 18:00:00 8.2 12 Sudoeste 38 Sudoeste 3.4 -- -- 93
2020-10-25 17:00:00 8.9 19 Sudoeste 34 Sur 2.8 -- -- 94
2020-10-25 16:00:00 9.1 14 Sur 43 Sudoeste 0.4 -- -- 94
2020-10-25 15:00:00 9.2 16 Sudoeste 39 Sudoeste 0.4 -- -- 92
2020-10-25 14:00:00 9.5 19 Sudoeste 50 Oeste 0.4 -- -- 90
2020-10-25 13:00:00 10 14 Sudoeste 48 Sudoeste 0 -- -- 88
2020-10-25 12:00:00 10.3 23 Sudoeste 42 Sudoeste 0 -- -- 75
2020-10-25 11:00:00 8.8 13 Sur 36 Sudoeste 0 -- -- 81
2020-10-25 10:00:00 7.7 15 Sudoeste 34 Sudoeste 0 -- -- 88
2020-10-25 09:00:00 7.3 17 Sur 37 Sudoeste 0 -- -- 86
2020-10-25 08:00:00 6.4 11 Sur 34 Sudoeste 0 -- -- 90
2020-10-25 07:00:00 6.7 14 Sur 35 Sudoeste 0 -- -- 88
2020-10-25 06:00:00 7.7 13 Sudoeste 45 Sudoeste 0 -- -- 82
2020-10-25 05:00:00 7.4 17 Sudoeste 37 Sudoeste 0 -- -- 86
2020-10-25 04:00:00 7.3 11 Sudoeste 38 Sudoeste 0 -- -- 87
2020-10-25 03:00:00 7.5 13 Sudoeste 31 Sudoeste 0 -- -- 85
2020-10-25 02:00:00 7.7 12 Sudoeste 35 Sudoeste 0 -- -- 83
2020-10-25 01:00:00 8.3 18 Sudoeste 38 Sudoeste 0 -- -- 81
2020-10-25 00:00:00 8.6 10 Sudeste 24 Sudeste 0 -- -- 81
2020-10-24 23:00:00 8.7 9 Sur 26 Sudoeste 0 -- -- 79
2020-10-24 22:00:00 8.5 9 Sur 27 Sudoeste 0 -- -- 78
2020-10-24 21:00:00 8.3 8 Sudeste 32 Sudoeste 0 -- -- 78
2020-10-24 20:00:00 7.8 9 Sur 26 Sudoeste 0 -- -- 81
2020-10-24 19:00:00 8.5 6 Sudeste 21 Sudoeste 0 -- -- 77
2020-10-24 18:00:00 9.9 10 Sudoeste 27 Sudoeste 0 -- -- 72
2020-10-24 17:00:00 10.8 8 Sudeste 19 Sur 0 -- -- 67
2020-10-24 16:00:00 11.3 10 Sudoeste 30 Sur 0 -- -- 66
2020-10-24 15:00:00 12.6 15 Sudoeste 30 Sur 0 -- -- 63
2020-10-24 14:00:00 11.5 14 Sur 29 Sudoeste 0 -- -- 68
2020-10-24 13:00:00 11.1 19 Sudoeste 30 Sudoeste 0 -- -- 69
2020-10-24 12:00:00 10.2 14 Sur 24 Sur 0 -- -- 71
2020-10-24 11:00:00 8 5 Sudeste 12 Sudeste 0 -- -- 85
2020-10-24 10:00:00 3.2 4 Norte 9 Norte 0 -- -- 97
2020-10-24 09:00:00 0.2 6 Norte 9 Norte 0.2 -- -- 97
2020-10-24 08:00:00 0.5 6 Norte 12 Norte 0 -- -- 96
2020-10-24 07:00:00 0.3 8 Norte 12 Norte 0 -- -- 96
2020-10-24 06:00:00 0.3 7 Norte 10 Norte 0 -- -- 96
2020-10-24 05:00:00 0.3 3 Norte 9 Norte 0 -- -- 96
2020-10-24 04:00:00 0.7 4 Norte 9 Norte 0 -- -- 95
2020-10-24 03:00:00 0.9 5 Norte 8 Noroeste 0 -- -- 95
2020-10-24 02:00:00 1.1 4 Norte 10 Norte 0 -- -- 94
2020-10-24 01:00:00 1.4 3 Norte 9 Norte 0 -- -- 92
2020-10-24 00:00:00 2.3 4 Norte 12 Norte 0 -- -- 90
2020-10-23 23:00:00 2.9 6 Norte 10 Norte 0 -- -- 91
2020-10-23 22:00:00 3.6 5 Noroeste 9 Norte 0 -- -- 89
2020-10-23 21:00:00 4.2 0 Calma 9 Nordeste 0 -- -- 86
2020-10-23 20:00:00 5.8 0 Calma 10 Noroeste 0 -- -- 78
2020-10-23 19:00:00 8.8 5 Noroeste 20 Oeste 0 -- -- 67
2020-10-23 18:00:00 10.7 8 Oeste 21 Oeste 0 -- -- 61
2020-10-23 17:00:00 11 6 Noroeste 18 Sudoeste 0 -- -- 63
2020-10-23 16:00:00 11.2 10 Oeste 29 Noroeste 0 -- -- 64
2020-10-23 15:00:00 11.4 8 Oeste 30 Oeste 0 -- -- 66
2020-10-23 14:00:00 10.5 10 Sudoeste 27 Sudoeste 0 -- -- 78
2020-10-23 13:00:00 8.7 8 Oeste 30 Sudoeste 0 -- -- 80
2020-10-23 12:00:00 8.6 13 Sudoeste 23 Sudoeste 0 -- -- 83
2020-10-23 11:00:00 8.1 4 Sur 14 Sudeste 0 -- -- 90
2020-10-23 10:00:00 7 4 Sur 15 Sur 0 -- -- 96
2020-10-23 09:00:00 5.7 6 Sur 12 Sur 0 -- -- 96
2020-10-23 08:00:00 5.5 4 Sur 12 Noroeste 0 -- -- 95
2020-10-23 07:00:00 5.5 3 Sudoeste 7 Oeste 0 -- -- 95
2020-10-23 06:00:00 6.2 5 Sudeste 9 Este 0.2 -- -- 93
2020-10-23 05:00:00 6.9 3 Sudoeste 28 Sudoeste 0.2 -- -- 95
2020-10-23 04:00:00 6.5 4 Sudoeste 8 Sur 0 -- -- 95
2020-10-23 03:00:00 7.1 3 Sudeste 18 Sudoeste 0 -- -- 94
2020-10-23 02:00:00 7.6 3 Sur 18 Sudoeste 0.6 -- -- 93
2020-10-23 01:00:00 8 7 Sur 19 Sudoeste 0.2 -- -- 90
2020-10-23 00:00:00 8.8 4 Nordeste 14 Sur 0 -- -- 89
2020-10-22 23:00:00 9.3 9 Sur 26 Sudoeste 0 -- -- 91
2020-10-22 22:00:00 9.5 7 Sur 18 Sur 0 -- -- 92
2020-10-22 21:00:00 9.4 6 Sudeste 24 Sur 0 -- -- 92
2020-10-22 20:00:00 9.6 10 Sur 33 Sudoeste 0 -- -- 92
2020-10-22 19:00:00 10.2 12 Sur 31 Sur 0 -- -- 92
2020-10-22 18:00:00 10.5 14 Sur 26 Sudoeste 0 -- -- 94
2020-10-22 17:00:00 10.6 15 Sudoeste 42 Sudoeste 0.8 -- -- 93
2020-10-22 16:00:00 11.1 14 Sur 26 Sur 1.4 -- -- 91
2020-10-22 15:00:00 11.7 12 Sudoeste 31 Sur 0.2 -- -- 88
2020-10-22 14:00:00 11.9 16 Sur 32 Sur 0 -- -- 83
2020-10-22 13:00:00 11.4 16 Sur 37 Sur 0 -- -- 87
2020-10-22 12:00:00 10.9 18 Sur 38 Sudoeste 0 -- -- 96
2020-10-22 11:00:00 9.7 15 Sur 26 Sur 0 -- -- 98
2020-10-22 10:00:00 9.5 13 Sur 25 Sur 0 -- -- 98
2020-10-22 09:00:00 9 14 Sur 27 Sur 0 -- -- 97
2020-10-22 08:00:00 8.8 10 Sur 25 Sur 0 -- -- 97
2020-10-22 07:00:00 8.7 10 Sur 19 Sur 0.2 -- -- 97
2020-10-22 06:00:00 8.6 10 Sur 23 Sur 0 -- -- 96
2020-10-22 05:00:00 8.6 13 Sur 28 Sur 0 -- -- 96
2020-10-22 04:00:00 8.9 15 Sur 30 Sur 0 -- -- 96
2020-10-22 03:00:00 8.6 12 Sur 22 Sur 0 -- -- 96
2020-10-22 02:00:00 8.1 9 Sur 14 Sur 0 -- -- 95
2020-10-22 01:00:00 9 7 Sur 13 Sur 0 -- -- 95
2020-10-22 00:00:00 9.4 9 Sur 21 Sur 0 -- -- 94
2020-10-21 23:00:00 9.5 12 Sur 20 Sur 0 -- -- 93
2020-10-21 22:00:00 9.2 10 Sur 30 Sudoeste 0 -- -- 91
2020-10-21 21:00:00 9.4 15 Sudoeste 32 Sudoeste 0 -- -- 87
2020-10-21 20:00:00 9.8 17 Sur 35 Sur 0 -- -- 90
2020-10-21 19:00:00 10.2 19 Sur 39 Sur 0 -- -- 90
2020-10-21 18:00:00 10.6 12 Sur 30 Sudoeste 0 -- -- 91
2020-10-21 17:00:00 10.8 11 Sur 29 Sudoeste 0.2 -- -- 92
2020-10-21 16:00:00 11.1 16 Sur 31 Sur 0.8 -- -- 92
2020-10-21 15:00:00 11.9 21 Sur 44 Sur 0 -- -- 86
2020-10-21 14:00:00 13.4 21 Sur 43 Sur 0 -- -- 79
2020-10-21 13:00:00 12.2 18 Sur 43 Sur 0 -- -- 79
2020-10-21 12:00:00 12.5 23 Sudoeste 47 Sur 0 -- -- 77
2020-10-21 11:00:00 11.8 24 Sudoeste 48 Sudoeste 0 -- -- 78
2020-10-21 10:00:00 9.9 14 Sudoeste 48 Sudoeste 0 -- -- 86
2020-10-21 09:00:00 9.2 21 Sudoeste 51 Sudoeste 0 -- -- 90
2020-10-21 08:00:00 8.8 19 Sudoeste 47 Sudoeste 0 -- -- 85
2020-10-21 07:00:00 9 26 Sudoeste 58 Sur 0 -- -- 88
2020-10-21 06:00:00 9.2 25 Sudoeste 55 Sur 0 -- -- 92
2020-10-21 05:00:00 9.9 23 Sur 47 Sur 0 -- -- 94
2020-10-21 04:00:00 10.3 24 Sur 47 Sur 0.4 -- -- 94
2020-10-21 03:00:00 10.9 26 Sur 77 Sur 2.2 -- -- 93
2020-10-21 02:00:00 11.1 22 Sur 72 Sur 0.2 -- -- 93
2020-10-21 01:00:00 10.7 21 Sur 43 Sudeste 1.2 -- -- 94
2020-10-21 00:00:00 10.8 23 Sur 45 Sudeste 0.2 -- -- 93
2020-10-20 23:00:00 10.1 15 Sur 29 Sur 0.2 -- -- 93
2020-10-20 22:00:00 10.4 12 Sur 29 Sur 0 -- -- 93
2020-10-20 21:00:00 10.2 14 Sudoeste 26 Sur 0 -- -- 95
2020-10-20 20:00:00 10 7 Sur 18 Sur 0 -- -- 96
2020-10-20 19:00:00 10 12 Sur 24 Sur 0.2 -- -- 96
2020-10-20 18:00:00 9.8 14 Sur 21 Sudoeste 0.4 -- -- 96
2020-10-20 17:00:00 9.5 11 Sur 21 Sur 0.2 -- -- 97
2020-10-20 16:00:00 9.2 10 Sur 27 Sur 0.2 -- -- 97
2020-10-20 15:00:00 8.9 15 Sur 39 Sur 5 -- -- 96
2020-10-20 14:00:00 9.1 22 Sur 40 Sur 5.2 -- -- 95
2020-10-20 13:00:00 9 15 Sur 37 Sur 3.4 -- -- 95
2020-10-20 12:00:00 9 15 Sur 32 Sudoeste 1 -- -- 94
2020-10-20 11:00:00 9.1 10 Sur 26 Sur 1 -- -- 92
2020-10-20 10:00:00 9.2 9 Sur 30 Sur 0.4 -- -- 90
2020-10-20 09:00:00 9.2 14 Sur 41 Sudoeste 0.2 -- -- 89
2020-10-20 08:00:00 9.5 11 Sur 30 Sudoeste 1.6 -- -- 86
2020-10-20 07:00:00 10.4 7 Sudeste 26 Sur 0 -- -- 76
2020-10-20 06:00:00 10.4 8 Sur 24 Sur 0.2 -- -- 78
2020-10-20 05:00:00 10.6 7 Sur 18 Sudeste 0 -- -- 73
2020-10-20 04:00:00 10.7 4 Sudoeste 10 Sur 0 -- -- 66
2020-10-20 03:00:00 10.9 6 Sudoeste 12 Sur 0 -- -- 65
2020-10-20 02:00:00 11.6 7 Sur 18 Sur 0 -- -- 58
2020-10-20 01:00:00 11.4 9 Sur 18 Sur 0 -- -- 60
2020-10-20 00:00:00 10 9 Sur 14 Sur 0 -- -- 71
2020-10-19 23:00:00 9.7 2 Sur 3 Sur 0 -- -- 65
2020-10-19 22:00:00 11.4 0 Calma 6 Sur 0 -- -- 61
2020-10-19 21:00:00 13 3 Sur 11 Sur 0 -- -- 52
2020-10-19 20:00:00 14.7 9 Sur 26 Sudoeste 0 -- -- 45
2020-10-19 19:00:00 15.3 8 Sur 30 Sur 0 -- -- 45
2020-10-19 18:00:00 17.7 14 Sur 33 Sudoeste 0 -- -- 41
2020-10-19 17:00:00 19 21 Sur 40 Sudoeste 0 -- -- 39
2020-10-19 16:00:00 19.4 23 Sudoeste 45 Sudoeste 0 -- -- 39
2020-10-19 15:00:00 19 20 Sudoeste 33 Sudoeste 0 -- -- 39
2020-10-19 14:00:00 16.4 15 Sur 37 Sur 0 -- -- 47
2020-10-19 13:00:00 13.8 15 Sur 25 Sur 0 -- -- 54
2020-10-19 12:00:00 13 13 Sur 29 Sur 0 -- -- 59
2020-10-19 11:00:00 10.5 17 Sur 27 Sur 0 -- -- 66
2020-10-19 10:00:00 3.7 4 Sudeste 7 Sudeste 0 -- -- 94
2020-10-19 09:00:00 0.3 6 Norte 8 Norte 0 -- -- 94
2020-10-19 08:00:00 -0.7 3 Norte 6 Norte 0 -- -- 89
2020-10-19 07:00:00 -0.5 3 Norte 9 Norte 0 -- -- 89
2020-10-19 06:00:00 -0.2 4 Norte 6 Norte 0 -- -- 88
2020-10-19 05:00:00 0.3 5 Norte 9 Norte 0 -- -- 88
2020-10-19 04:00:00 1 6 Norte 11 Norte 0 -- -- 87
2020-10-19 03:00:00 1.7 8 Norte 10 Norte 0 -- -- 86
2020-10-19 02:00:00 1.9 7 Norte 11 Norte 0 -- -- 87
2020-10-19 01:00:00 2.2 7 Norte 10 Norte 0 -- -- 86
2020-10-19 00:00:00 3.2 5 Norte 10 Norte 0 -- -- 83
2020-10-18 23:00:00 3.4 6 Norte 12 Norte 0 -- -- 82
2020-10-18 22:00:00 4.4 6 Norte 11 Norte 0 -- -- 79
2020-10-18 21:00:00 5.6 9 Norte 14 Norte 0 -- -- 75
2020-10-18 20:00:00 7.7 10 Norte 13 Norte 0 -- -- 71
2020-10-18 19:00:00 12.8 5 Oeste 12 Sur 0 -- -- 49
2020-10-18 18:00:00 15.2 8 Sur 15 Sur 0 -- -- 41
2020-10-18 17:00:00 16.1 6 Sudeste 15 Sudeste 0 -- -- 40
2020-10-18 16:00:00 16.1 6 Sur 21 Sur 0 -- -- 40
2020-10-18 15:00:00 15.7 9 Sudeste 19 Sudeste 0 -- -- 42
2020-10-18 14:00:00 15.9 9 Sur 18 Sur 0 -- -- 43
2020-10-18 13:00:00 15.2 9 Sudeste 14 Sudeste 0 -- -- 46
2020-10-18 12:00:00 13.8 9 Sudeste 14 Sur 0 -- -- 52
2020-10-18 11:00:00 11.2 0 Calma 9 Norte 0 -- -- 74
2020-10-18 10:00:00 6 6 Norte 11 Norte 0 -- -- 87
2020-10-18 09:00:00 3.5 7 Norte 10 Noroeste 0 -- -- 93
2020-10-18 08:00:00 2.8 7 Norte 13 Norte 0 -- -- 92
2020-10-18 07:00:00 3.1 8 Norte 11 Norte 0 -- -- 92
2020-10-18 06:00:00 2.8 7 Norte 10 Norte 0 -- -- 92
2020-10-18 05:00:00 3.2 10 Norte 15 Norte 0 -- -- 91
2020-10-18 04:00:00 3.3 11 Norte 14 Norte 0 -- -- 90
2020-10-18 03:00:00 3 8 Nordeste 15 Norte 0 -- -- 88
2020-10-18 02:00:00 1.5 9 Norte 14 Norte 0 -- -- 88
2020-10-18 01:00:00 1.7 6 Norte 12 Norte 0 -- -- 82
2020-10-18 00:00:00 2.2 8 Norte 13 Nordeste 0 -- -- 84
2020-10-17 23:00:00 2.5 8 Norte 12 Noroeste 0 -- -- 85
2020-10-17 22:00:00 3 9 Norte 14 Norte 0 -- -- 86
2020-10-17 21:00:00 4.2 10 Norte 13 Norte 0 -- -- 83
2020-10-17 20:00:00 6.6 9 Norte 18 Norte 0 -- -- 74
2020-10-17 19:00:00 9.9 11 Noroeste 20 Norte 0 -- -- 61
2020-10-17 18:00:00 11.9 16 Norte 26 Norte 0 -- -- 52
2020-10-17 17:00:00 13.5 12 Norte 19 Norte 0 -- -- 46
2020-10-17 16:00:00 14.3 4 Sur 15 Sudoeste 0 -- -- 48
2020-10-17 15:00:00 13.8 5 Sudeste 17 Sudeste 0 -- -- 50
2020-10-17 14:00:00 11.9 8 Sudeste 16 Sudeste 0 -- -- 55
2020-10-17 13:00:00 10.9 6 Sur 14 Sur 0 -- -- 57
2020-10-17 12:00:00 9.4 4 Sur 12 Sur 0 -- -- 66
2020-10-17 11:00:00 7.6 4 Sudeste 8 Sudeste 0 -- -- 66
2020-10-17 10:00:00 3.1 0 Calma 9 Norte 0 -- -- 89
2020-10-17 09:00:00 -0.5 6 Norte 14 Norte 0 -- -- 93
2020-10-17 08:00:00 -0.6 3 Norte 10 Norte 0 -- -- 91
2020-10-17 07:00:00 -0.1 7 Noroeste 14 Noroeste 0 -- -- 93
2020-10-17 06:00:00 -0.9 3 Norte 10 Norte 0 -- -- 93
2020-10-17 05:00:00 -0.6 8 Norte 13 Noroeste 0 -- -- 93
2020-10-17 04:00:00 -0.4 9 Norte 14 Norte 0 -- -- 94
2020-10-17 03:00:00 -0.9 6 Norte 10 Noroeste 0 -- -- 93
2020-10-17 02:00:00 -0.8 5 Norte 12 Norte 0 -- -- 92
2020-10-17 01:00:00 -0.6 6 Norte 11 Norte 0 -- -- 92
2020-10-17 00:00:00 -0.2 3 Norte 7 Norte 0 -- -- 89
2020-10-16 23:00:00 1.5 0 Calma 13 Norte 0 -- -- 86
2020-10-16 22:00:00 2.8 10 Norte 17 Norte 0 -- -- 85
2020-10-16 21:00:00 3.7 9 Norte 21 Norte 0 -- -- 82
2020-10-16 20:00:00 4 11 Norte 21 Norte 0 -- -- 83
2020-10-16 19:00:00 5.1 14 Norte 25 Norte 0 -- -- 79
2020-10-16 18:00:00 6.9 14 Norte 21 Norte 0 -- -- 73
2020-10-16 17:00:00 7.8 8 Norte 24 Norte 0 -- -- 69
2020-10-16 16:00:00 8 13 Norte 26 Norte 0 -- -- 66
2020-10-16 15:00:00 8.1 12 Noroeste 22 Noroeste 0 -- -- 65
2020-10-16 14:00:00 6.9 13 Norte 32 Norte 0 -- -- 70
2020-10-16 13:00:00 6.2 17 Norte 30 Norte 0 -- -- 73
2020-10-16 12:00:00 4.8 12 Norte 28 Norte 0 -- -- 76
2020-10-16 11:00:00 4.3 11 Norte 34 Noroeste 0 -- -- 79
2020-10-16 10:00:00 3.9 13 Norte 31 Norte 0 -- -- 81
2020-10-16 09:00:00 2.1 15 Norte 39 Norte 0 -- -- 84
2020-10-16 08:00:00 2 23 Norte 39 Norte 0 -- -- 85
2020-10-16 07:00:00 1.7 16 Norte 37 Noroeste 0 -- -- 85
2020-10-16 06:00:00 2 15 Norte 39 Norte 0 -- -- 86
2020-10-16 05:00:00 2 17 Norte 42 Norte 0 -- -- 85
2020-10-16 04:00:00 2.1 27 Norte 46 Noroeste 0 -- -- 84
2020-10-16 03:00:00 1.9 15 Norte 37 Noroeste 0 -- -- 87
2020-10-16 02:00:00 1.7 19 Norte 44 Norte 0 -- -- 86
2020-10-16 01:00:00 1.3 13 Norte 33 Norte 0 -- -- 88
2020-10-16 00:00:00 1.3 12 Norte 32 Norte 0 -- -- 88
2020-10-15 23:00:00 2.1 17 Norte 36 Norte 0.2 -- -- 90
2020-10-15 22:00:00 2.2 18 Norte 37 Norte 0 -- -- 91
2020-10-15 21:00:00 2.1 13 Norte 37 Norte 0.2 -- -- 91
2020-10-15 20:00:00 2.5 11 Norte 44 Noroeste 0 -- -- 88
2020-10-15 19:00:00 2.8 14 Norte 28 Norte 0.2 -- -- 86
2020-10-15 18:00:00 3.2 15 Norte 27 Norte 0 -- -- 90
2020-10-15 17:00:00 3.4 14 Norte 33 Noroeste 0.2 -- -- 88
2020-10-15 16:00:00 4.3 10 Norte 32 Norte 0.2 -- -- 86
2020-10-15 15:00:00 5.2 14 Norte 26 Norte 0 -- -- 83
2020-10-15 14:00:00 4.6 15 Norte 27 Norte 0.6 -- -- 89
2020-10-15 13:00:00 4.8 9 Noroeste 32 Norte 0.2 -- -- 84
2020-10-15 12:00:00 4.3 12 Norte 27 Norte 0 -- -- 82
2020-10-15 11:00:00 3.6 13 Norte 24 Norte 0.2 -- -- 87
2020-10-15 10:00:00 3.3 3 Sur 7 Norte 0 -- -- 88
2020-10-15 09:00:00 3.2 3 Este 8 Sudeste 0 -- -- 84
2020-10-15 08:00:00 3.3 2 Este 15 Noroeste 0 -- -- 82
2020-10-15 07:00:00 3 6 Norte 29 Nordeste 0 -- -- 84
2020-10-15 06:00:00 3.1 12 Norte 28 Norte 0 -- -- 84
2020-10-15 05:00:00 3.2 10 Norte 23 Norte 0 -- -- 87
2020-10-15 04:00:00 3.3 16 Norte 28 Norte 0 -- -- 86
2020-10-15 03:00:00 3.2 10 Norte 23 Norte 0 -- -- 85
2020-10-15 02:00:00 3 8 Norte 27 Norte 0 -- -- 83
2020-10-15 01:00:00 3.3 9 Norte 36 Nordeste 0 -- -- 87
2020-10-15 00:00:00 3.1 6 Norte 17 Norte 0.4 -- -- 88
2020-10-14 23:00:00 3.6 6 Norte 28 Norte 0 -- -- 85
2020-10-14 22:00:00 3.8 10 Nordeste 43 Noroeste 0 -- -- 85
2020-10-14 21:00:00 3.7 16 Norte 32 Norte 0 -- -- 88
2020-10-14 20:00:00 3.9 4 Sudeste 17 Norte 0.2 -- -- 86
2020-10-14 19:00:00 4.4 14 Noroeste 43 Noroeste 0 -- -- 84
2020-10-14 18:00:00 5.9 17 Noroeste 36 Noroeste 0 -- -- 78
2020-10-14 17:00:00 5.9 24 Noroeste 47 Noroeste 0 -- -- 79
2020-10-14 16:00:00 6.2 16 Norte 40 Noroeste 0 -- -- 82
2020-10-14 15:00:00 6.9 24 Norte 43 Norte 0.2 -- -- 77
2020-10-14 14:00:00 7.2 22 Noroeste 47 Noroeste 0 -- -- 76
2020-10-14 13:00:00 7.6 28 Noroeste 50 Norte 0 -- -- 67
2020-10-14 12:00:00 5.8 23 Norte 44 Norte 0 -- -- 75
2020-10-14 11:00:00 4.6 19 Noroeste 36 Noroeste 0 -- -- 82
2020-10-14 10:00:00 4.7 17 Noroeste -- -- 0 -- -- 87
2020-10-14 09:00:00 3.8 7 Norte 21 Norte 0.2 -- -- 89
2020-10-14 08:00:00 3.8 7 Norte 40 Noroeste 0 -- -- 88
2020-10-14 07:00:00 4.3 17 Noroeste 41 Norte 0 -- -- 83
2020-10-14 06:00:00 4.8 13 Norte 31 Noroeste 0 -- -- 83
2020-10-14 05:00:00 4.8 13 Norte 41 Norte 0 -- -- 82
2020-10-14 04:00:00 4.3 12 Norte 39 Norte 0 -- -- 83
2020-10-14 03:00:00 4.4 16 Norte 37 Norte 0 -- -- 82
2020-10-14 02:00:00 5.1 26 Norte 44 Noroeste 0 -- -- 81
2020-10-14 01:00:00 5.9 22 Norte 38 Noroeste 0 -- -- 82
2020-10-14 00:00:00 6.1 8 Norte 27 Nordeste 0 -- -- 91
2020-10-13 23:00:00 6.4 11 Norte 22 Norte 0 -- -- 91
2020-10-13 22:00:00 7.2 12 Norte 24 Norte 0 -- -- 89
2020-10-13 21:00:00 7.6 12 Norte 25 Norte 0 -- -- 88
2020-10-13 20:00:00 8.3 12 Norte 23 Norte 0 -- -- 84
2020-10-13 19:00:00 8.9 13 Norte 27 Norte 0 -- -- 80
2020-10-13 18:00:00 10.5 12 Norte 25 Norte 0 -- -- 74
2020-10-13 17:00:00 11.7 17 Norte 26 Norte 0 -- -- 68
2020-10-13 16:00:00 12.2 17 Norte 28 Nordeste 0 -- -- 69
2020-10-13 15:00:00 11.8 14 Norte 25 Norte 0 -- -- 70
2020-10-13 14:00:00 11.8 8 Norte 21 Norte 0 -- -- 70
2020-10-13 13:00:00 10.6 13 Norte 22 Norte 0 -- -- 75
2020-10-13 12:00:00 10.1 6 Norte 20 Noroeste 0 -- -- 76
2020-10-13 11:00:00 10.1 5 Norte 25 Norte 0 -- -- 78
2020-10-13 10:00:00 10 9 Nordeste 32 Norte 0 -- -- 79
2020-10-13 09:00:00 9.9 7 Norte 29 Noroeste 0 -- -- 81
2020-10-13 08:00:00 10 10 Noroeste 35 Noroeste 0 -- -- 84
2020-10-13 07:00:00 10.1 18 Noroeste 38 Noroeste 0 -- -- 84
2020-10-13 06:00:00 10.1 11 Norte 25 Norte 0.2 -- -- 88
2020-10-13 05:00:00 10.6 6 Norte 28 Noroeste 0 -- -- 86
2020-10-13 04:00:00 8.9 5 Este 21 Sudeste 0 -- -- 89
2020-10-13 03:00:00 8.9 5 Este 16 Sudeste 0.2 -- -- 90
2020-10-13 02:00:00 8.6 3 Sudeste 7 Sudeste 0 -- -- 90
2020-10-13 01:00:00 -- -- -- -- -- -- -- -- --
2020-10-13 00:00:00 8.4 4 Este 13 Sudoeste 0 -- -- 87
2020-10-12 23:00:00 8.9 4 Sudeste 13 Sudeste 0 -- -- 80
2020-10-12 22:00:00 8.4 4 Sur 24 Este 0 -- -- 80
2020-10-12 21:00:00 8.2 4 Este 26 Nordeste 0 -- -- 77
2020-10-12 20:00:00 7.6 7 Norte 29 Norte 0 -- -- 77
2020-10-12 19:00:00 8.6 18 Norte 36 Noroeste 0 -- -- 71
2020-10-12 18:00:00 -- -- -- -- -- -- -- -- --
2020-10-12 17:00:00 9.3 18 Norte 34 Noroeste 0 -- -- 64
2020-10-12 16:00:00 9.5 14 Norte 31 Noroeste 0 -- -- 68
2020-10-12 15:00:00 8.3 16 Norte 36 Norte 0 -- -- 70
2020-10-12 14:00:00 6.9 20 Norte 47 Norte 0 -- -- 75
2020-10-12 13:00:00 7 21 Norte 48 Norte 0 -- -- 78
2020-10-12 12:00:00 6.3 18 Norte 39 Norte 0 -- -- 82
2020-10-12 11:00:00 5.5 24 Norte 42 Norte 0 -- -- 86
2020-10-12 10:00:00 4.2 18 Norte 38 Norte 0 -- -- 87
2020-10-12 09:00:00 3.7 20 Norte 42 Noroeste 0 -- -- 87
2020-10-12 08:00:00 3.8 22 Norte 48 Norte 0 -- -- 88
2020-10-12 07:00:00 3.7 27 Norte 50 Norte 0 -- -- 88
2020-10-12 06:00:00 3.8 26 Norte 45 Norte 0.2 -- -- 90
2020-10-12 05:00:00 3.9 18 Norte 41 Norte 0.2 -- -- 90
2020-10-12 04:00:00 -- -- -- -- -- -- -- -- --
2020-10-12 03:00:00 3.9 20 Norte 35 Norte 0.2 -- -- 92
2020-10-12 02:00:00 4.2 19 Norte 39 Norte 0.2 -- -- 90
2020-10-12 01:00:00 4.1 13 Norte 37 Norte 0.2 -- -- 90
2020-10-12 00:00:00 4.1 21 Norte 37 Norte 0 -- -- 91
2020-10-11 23:00:00 4.3 15 Norte 46 Norte 0 -- -- 90
2020-10-11 22:00:00 4.5 21 Norte 42 Nordeste 0.2 -- -- 90
2020-10-11 21:00:00 -- -- -- -- -- -- -- -- --
2020-10-11 20:00:00 -- -- -- -- -- -- -- -- --
2020-10-11 19:00:00 5.1 19 Norte 41 Norte 0.4 -- -- 87
2020-10-11 18:00:00 5.8 16 Norte 37 Norte 0.2 -- -- 87
2020-10-11 17:00:00 6.3 25 Norte 45 Norte 0.2 -- -- 85
2020-10-11 16:00:00 8.6 21 Norte 43 Norte 0 -- -- 71
2020-10-11 15:00:00 6.6 18 Norte 44 Noroeste 0 -- -- 81
2020-10-11 14:00:00 6.1 16 Norte 35 Norte 0 -- -- 82
2020-10-11 13:00:00 5.3 13 Norte 28 Noroeste 0 -- -- 83
2020-10-11 12:00:00 4.4 12 Norte 35 Noroeste 0 -- -- 86
2020-10-11 11:00:00 5.7 24 Norte 47 Norte 0 -- -- 76
2020-10-11 10:00:00 3.9 23 Norte 49 Norte 0 -- -- 80
2020-10-11 09:00:00 3.1 27 Norte 48 Norte 0 -- -- 86
2020-10-11 08:00:00 3.3 18 Norte 34 Norte 0 -- -- 87
2020-10-11 07:00:00 3.9 13 Norte 33 Norte 0 -- -- 85
2020-10-11 06:00:00 3.8 11 Norte 39 Norte 0 -- -- 86
2020-10-11 05:00:00 4.3 23 Norte 43 Norte 0 -- -- 83
2020-10-11 04:00:00 4.9 23 Norte 42 Norte 0 -- -- 84
2020-10-11 03:00:00 5.1 25 Norte 45 Norte 0 -- -- 88
2020-10-11 02:00:00 5.8 18 Norte 40 Norte 0 -- -- 89
2020-10-11 01:00:00 6 14 Norte 35 Norte 0 -- -- 88
2020-10-11 00:00:00 6.4 21 Norte 41 Norte 0 -- -- 86
2020-10-10 23:00:00 6.3 32 Norte 50 Norte 0 -- -- 84
2020-10-10 22:00:00 6.6 24 Norte 50 Norte 0 -- -- 81
2020-10-10 21:00:00 6.6 21 Norte 44 Norte 0 -- -- 82
2020-10-10 20:00:00 7.2 31 Norte 49 Norte 0 -- -- 79
2020-10-10 19:00:00 8.1 16 Norte 48 Noroeste 0 -- -- 76
2020-10-10 18:00:00 8.6 25 Norte 42 Norte 0 -- -- 77
2020-10-10 17:00:00 8.6 22 Norte 37 Norte 0 -- -- 83
2020-10-10 16:00:00 9.3 26 Norte 37 Norte 0 -- -- 85
2020-10-10 15:00:00 11.1 25 Norte 37 Norte 0 -- -- 80
2020-10-10 14:00:00 13.6 19 Norte 33 Norte 0 -- -- 69
2020-10-10 13:00:00 12.1 19 Norte 29 Norte 0 -- -- 76
2020-10-10 12:00:00 12.3 18 Norte 30 Noroeste 0 -- -- 76
2020-10-10 11:00:00 10.9 15 Norte 32 Noroeste 0 -- -- 81
2020-10-10 10:00:00 10.1 16 Norte 31 Norte 0 -- -- 81
2020-10-10 09:00:00 8.4 6 Norte 21 Norte 0 -- -- 85
2020-10-10 08:00:00 8 12 Norte 30 Norte 0 -- -- 86
2020-10-10 07:00:00 8.5 14 Norte 30 Nordeste 0 -- -- 83
2020-10-10 06:00:00 9.2 14 Norte 27 Noroeste 0 -- -- 86
2020-10-10 05:00:00 9.6 13 Norte 30 Norte 0 -- -- 90
2020-10-10 04:00:00 9.9 15 Norte 29 Norte 0 -- -- 90
2020-10-10 03:00:00 10 15 Norte 26 Norte 0 -- -- 89
2020-10-10 02:00:00 10.6 13 Norte 24 Norte 0 -- -- 88
2020-10-10 01:00:00 10.9 11 Norte 26 Norte 0 -- -- 88
2020-10-10 00:00:00 11.2 17 Norte 27 Norte 0 -- -- 89
2020-10-09 23:00:00 11.9 16 Norte 28 Norte 0 -- -- 89
2020-10-09 22:00:00 12.2 14 Norte 25 Norte 0 -- -- 87
2020-10-09 21:00:00 11.9 5 Norte 11 Norte 0 -- -- 84
2020-10-09 20:00:00 13.9 5 Norte 15 Noroeste 0 -- -- 78
2020-10-09 19:00:00 17.1 4 Noroeste 15 Nordeste 0 -- -- 66
2020-10-09 18:00:00 17.6 2 Noroeste 15 Nordeste 0 -- -- 66
2020-10-09 17:00:00 17.8 6 Nordeste 23 Nordeste 0 -- -- 62
2020-10-09 16:00:00 19.1 15 Nordeste 23 Nordeste 0 -- -- 57
2020-10-09 15:00:00 19.4 7 Norte 22 Este 0 -- -- 51
2020-10-09 14:00:00 20.7 10 Sudeste 21 Sudeste 0 -- -- 48
2020-10-09 13:00:00 19.5 9 Sudeste 18 Sudeste 0 -- -- 51
2020-10-09 12:00:00 18.5 9 Sudeste 14 Sur 0 -- -- 54
2020-10-09 11:00:00 17 8 Sur 11 Sur 0 -- -- 59
2020-10-09 10:00:00 11.5 5 Norte 12 Norte 0 -- -- 80
2020-10-09 09:00:00 7.8 5 Norte 10 Norte 0 -- -- 87
2020-10-09 08:00:00 7.3 6 Norte 9 Norte 0 -- -- 88
2020-10-09 07:00:00 8.5 3 Norte 10 Norte 0 -- -- 84
2020-10-09 06:00:00 7.7 6 Norte 10 Norte 0 -- -- 86
2020-10-09 05:00:00 7.2 8 Norte 10 Norte 0 -- -- 85
2020-10-09 04:00:00 7.1 6 Norte 10 Norte 0 -- -- 84
2020-10-09 03:00:00 7.4 7 Norte 14 Norte 0 -- -- 84
2020-10-09 02:00:00 8.6 8 Norte 15 Norte 0 -- -- 82
2020-10-09 01:00:00 8.3 6 Norte 14 Norte 0 -- -- 82
2020-10-09 00:00:00 8.4 4 Norte 11 Norte 0 -- -- 81
2020-10-08 23:00:00 9.7 6 Norte 13 Noroeste 0 -- -- 77
2020-10-08 22:00:00 10.1 9 Noroeste 12 Norte 0 -- -- 77
2020-10-08 21:00:00 11.1 6 Norte 15 Norte 0 -- -- 76
2020-10-08 20:00:00 13.4 9 Norte 12 Norte 0 -- -- 71
2020-10-08 19:00:00 17.3 4 Noroeste 7 Oeste 0 -- -- 63
2020-10-08 18:00:00 18.8 2 Oeste 14 Sudoeste 0 -- -- 58
2020-10-08 17:00:00 20.5 9 Sudoeste 19 Oeste 0 -- -- 49
2020-10-08 16:00:00 21.1 11 Sudoeste 22 Oeste 0 -- -- 50
2020-10-08 15:00:00 20.6 9 Sudoeste 22 Oeste 0 -- -- 52
2020-10-08 14:00:00 19.2 6 Sur 13 Sudeste 0 -- -- 65
2020-10-08 13:00:00 18.4 8 Sur 20 Sudeste 0 -- -- 65
2020-10-08 12:00:00 16.7 9 Sur 18 Sudeste 0 -- -- 74
2020-10-08 11:00:00 15.2 5 Sur 11 Sudeste 0 -- -- 79
2020-10-08 10:00:00 9.4 4 Norte 10 Norte 0 -- -- 97
2020-10-08 09:00:00 6.8 6 Norte 10 Norte 0 -- -- 96
2020-10-08 08:00:00 6.5 7 Norte 14 Norte 0 -- -- 95
2020-10-08 07:00:00 6.4 9 Norte 13 Norte 0 -- -- 96
2020-10-08 06:00:00 6.6 9 Norte 13 Norte 0 -- -- 96
2020-10-08 05:00:00 6.7 6 Norte 10 Norte 0 -- -- 95
2020-10-08 04:00:00 6.7 6 Norte 10 Norte 0 -- -- 95
2020-10-08 03:00:00 6.9 6 Norte 10 Norte 0 -- -- 95
2020-10-08 02:00:00 7.1 7 Norte 11 Norte 0 -- -- 93
2020-10-08 01:00:00 8.4 3 Noroeste 13 Norte 0 -- -- 92
2020-10-08 00:00:00 8.8 6 Noroeste 11 Norte 0 -- -- 91
2020-10-07 23:00:00 10.4 6 Norte 15 Norte 0 -- -- 89
2020-10-07 22:00:00 11.3 8 Norte 18 Norte 0 -- -- 88
2020-10-07 21:00:00 12.4 9 Norte 19 Noroeste 0 -- -- 83
2020-10-07 20:00:00 13.7 10 Norte 18 Norte 0 -- -- 77
2020-10-07 19:00:00 15.9 10 Norte 22 Norte 0 -- -- 70
2020-10-07 18:00:00 18 9 Norte 17 Norte 0 -- -- 63
2020-10-07 17:00:00 18.5 9 Norte 20 Noroeste 0 -- -- 62
2020-10-07 16:00:00 17.9 12 Norte 27 Norte 0 -- -- 61
2020-10-07 15:00:00 17 14 Norte 30 Norte 0 -- -- 66
2020-10-07 14:00:00 15.3 19 Norte 35 Norte 0 -- -- 71
2020-10-07 13:00:00 15.8 17 Norte 32 Norte 0 -- -- 70
2020-10-07 12:00:00 15.2 14 Norte 25 Norte 0 -- -- 72
2020-10-07 11:00:00 11.1 4 Sudeste 10 Sudeste 0 -- -- 85
2020-10-07 10:00:00 8.5 2 Sudeste 6 Noroeste 0 -- -- 92
2020-10-07 09:00:00 6.4 0 Calma 11 Norte 0 -- -- 92
2020-10-07 08:00:00 5.9 2 Norte 11 Norte 0 -- -- 89
2020-10-07 07:00:00 6.4 8 Norte 12 Norte 0 -- -- 86
2020-10-07 06:00:00 9 9 Noroeste 15 Noroeste 0 -- -- 77
2020-10-07 05:00:00 9.5 8 Norte 13 Nordeste 0 -- -- 75
2020-10-07 04:00:00 8.3 4 Norte 11 Noroeste 0 -- -- 81
2020-10-07 03:00:00 8.5 4 Noroeste 13 Sudeste 0 -- -- 89
2020-10-07 02:00:00 8.2 3 Oeste 13 Noroeste 0 -- -- 91
2020-10-07 01:00:00 7.9 2 Noroeste 11 Norte 0 -- -- 90
2020-10-07 00:00:00 8.3 6 Norte 11 Norte 0 -- -- 90
2020-10-06 23:00:00 9.1 3 Norte 12 Nordeste 0 -- -- 87
2020-10-06 22:00:00 9.6 2 Norte 8 Noroeste 0 -- -- 84
2020-10-06 21:00:00 11.3 2 Noroeste 7 Sudoeste 0 -- -- 79
2020-10-06 20:00:00 13.6 0 Calma 9 Sudeste 0 -- -- 74
2020-10-06 19:00:00 16 3 Noroeste 28 Noroeste 0 -- -- 63
2020-10-06 18:00:00 16.9 10 Noroeste 28 Noroeste 0 -- -- 60
2020-10-06 17:00:00 17.6 13 Noroeste 29 Noroeste 0 -- -- 58
2020-10-06 16:00:00 19.1 15 Norte 31 Este 0 -- -- 55
2020-10-06 15:00:00 17.8 15 Norte 31 Norte 0 -- -- 60
2020-10-06 14:00:00 18.6 12 Noroeste 25 Sur 0 -- -- 61
2020-10-06 13:00:00 18 12 Sur 30 Oeste 0 -- -- 68
2020-10-06 12:00:00 16.9 5 Sur 15 Sudeste 0.2 -- -- 69
2020-10-06 11:00:00 -- -- -- -- -- -- -- -- --
2020-10-06 10:00:00 11.6 2 Sur 10 Norte 0 -- -- 89
2020-10-06 09:00:00 6.8 4 Norte 8 Oeste 0 -- -- 96
2020-10-06 08:00:00 6 2 Oeste 10 Norte 0 -- -- 94
2020-10-06 07:00:00 5.9 6 Norte 12 Norte 0 -- -- 94
2020-10-06 06:00:00 5.5 9 Norte 12 Norte 0 -- -- 93
2020-10-06 05:00:00 5.8 4 Norte 8 Norte 0 -- -- 89
2020-10-06 04:00:00 6.4 3 Norte 10 Noroeste 0 -- -- 90
2020-10-06 03:00:00 5.6 4 Norte 12 Norte 0 -- -- 89
2020-10-06 02:00:00 4.2 6 Norte 12 Norte 0 -- -- 88
2020-10-06 01:00:00 4.5 5 Norte 10 Norte 0 -- -- 85
2020-10-06 00:00:00 5.1 3 Norte 8 Norte 0 -- -- 84
2020-10-05 23:00:00 4.9 2 Noroeste 13 Norte 0 -- -- 84
2020-10-05 22:00:00 4.6 6 Norte 15 Oeste 0 -- -- 82
2020-10-05 21:00:00 5.3 5 Norte 13 Norte 0 -- -- 82
2020-10-05 20:00:00 7.3 5 Norte 9 Sudoeste 0 -- -- 73
2020-10-05 19:00:00 11.6 7 Sudoeste 23 Sudoeste 0 -- -- 58
2020-10-05 18:00:00 12.1 7 Oeste 22 Noroeste 0 -- -- 57
2020-10-05 17:00:00 12.9 9 Noroeste 30 Sudoeste 0 -- -- 52
2020-10-05 16:00:00 14.4 15 Sudoeste 28 Sudoeste 0 -- -- 51
2020-10-05 15:00:00 12.9 17 Sudoeste 28 Sudoeste 0 -- -- 54
2020-10-05 14:00:00 12.6 11 Sudoeste 24 Oeste 0 -- -- 57
2020-10-05 13:00:00 11.7 8 Sudoeste 26 Oeste 0 -- -- 61
2020-10-05 12:00:00 9.8 9 Norte 27 Norte 0 -- -- 61
2020-10-05 11:00:00 8.9 9 Norte 26 Norte 0 -- -- 67
2020-10-05 10:00:00 7.6 12 Noroeste 28 Oeste 0 -- -- 75
2020-10-05 09:00:00 2.5 4 Este 22 Noroeste 0 -- -- 93
2020-10-05 08:00:00 2.6 7 Norte 15 Noroeste 0 -- -- 91
2020-10-05 07:00:00 2.6 8 Norte 12 Noroeste 0 -- -- 94
2020-10-05 06:00:00 1.2 2 Norte 7 Oeste 0 -- -- 94
2020-10-05 05:00:00 2 4 Norte 14 Noroeste 0 -- -- 93
2020-10-05 04:00:00 1.6 2 Norte 13 Norte 0 -- -- 93
2020-10-05 03:00:00 2.4 6 Norte 14 Norte 0 -- -- 94
2020-10-05 02:00:00 2.6 5 Norte 9 Nordeste 0 -- -- 93
2020-10-05 01:00:00 2.3 5 Norte 10 Noroeste 0 -- -- 92
2020-10-05 00:00:00 3.6 4 Oeste 15 Noroeste 0 -- -- 91
2020-10-04 23:00:00 4.3 2 Noroeste 15 Noroeste 0.2 -- -- 89
2020-10-04 22:00:00 4.7 4 Oeste 14 Noroeste 0 -- -- 91
2020-10-04 21:00:00 5.4 4 Norte 11 Sudeste 0 -- -- 87
2020-10-04 20:00:00 6.2 0 Calma 17 Noroeste 0 -- -- 80
2020-10-04 19:00:00 7.9 6 Noroeste 33 Oeste 0 -- -- 73
2020-10-04 18:00:00 7.7 18 Noroeste 39 Oeste 0.6 -- -- 81
2020-10-04 17:00:00 8.6 13 Norte 39 Oeste 0 -- -- 78
2020-10-04 16:00:00 11.4 19 Oeste 42 Noroeste 0 -- -- 59
2020-10-04 15:00:00 11.7 10 Noroeste 46 Oeste 0 -- -- 54
2020-10-04 14:00:00 11.1 17 Noroeste 35 Noroeste 0 -- -- 60
2020-10-04 13:00:00 10.9 13 Oeste 25 Noroeste 0 -- -- 65
2020-10-04 12:00:00 8.3 6 Oeste 28 Sudoeste 0 -- -- 85
2020-10-04 11:00:00 9.1 16 Sudoeste 30 Sudoeste 0 -- -- 78
2020-10-04 10:00:00 6.1 11 Sur 24 Sudoeste 0.2 -- -- 89
2020-10-04 09:00:00 5.3 9 Sudoeste 31 Sudoeste 0 -- -- 90
2020-10-04 08:00:00 5.1 7 Sur 26 Sudoeste 0 -- -- 87
2020-10-04 07:00:00 5.1 18 Oeste 37 Oeste 0 -- -- 84
2020-10-04 06:00:00 5.3 17 Oeste 35 Oeste 0 -- -- 79
2020-10-04 05:00:00 5.7 4 Sur 14 Sudoeste 0 -- -- 79
2020-10-04 04:00:00 6 5 Sur 21 Sur 0 -- -- 81
2020-10-04 03:00:00 6 9 Sur 23 Sur 0 -- -- 79
2020-10-04 02:00:00 4.9 10 Sur 21 Sur 0 -- -- 81
2020-10-04 01:00:00 4.4 3 Sudoeste 16 Sur 0 -- -- 74
2020-10-04 00:00:00 5.5 5 Sur 10 Sur 0 -- -- 69
2020-10-03 23:00:00 7.2 8 Noroeste 20 Noroeste 0 -- -- 64
2020-10-03 22:00:00 6.7 3 Nordeste 9 Noroeste 0 -- -- 76
2020-10-03 21:00:00 7.1 2 Sur 14 Sur 0 -- -- 72
2020-10-03 20:00:00 7.5 3 Sudoeste 17 Sudoeste 0 -- -- 70
2020-10-03 19:00:00 8.4 10 Oeste 29 Oeste 0 -- -- 64
2020-10-03 18:00:00 8.8 13 Oeste 29 Oeste 0 -- -- 63
2020-10-03 17:00:00 8.7 13 Oeste 33 Oeste 0 -- -- 66
2020-10-03 16:00:00 8.9 14 Sudoeste 36 Sudoeste 0 -- -- 64
2020-10-03 15:00:00 9.2 15 Oeste 34 Oeste 0 -- -- 65
2020-10-03 14:00:00 9.4 17 Oeste 35 Oeste 0 -- -- 67
2020-10-03 13:00:00 9.2 14 Sudoeste 33 Sudoeste 0 -- -- 68
2020-10-03 12:00:00 6.2 6 Sur 28 Sudoeste 0 -- -- 74
2020-10-03 11:00:00 5.9 11 Noroeste 24 Oeste 0 -- -- 71
2020-10-03 10:00:00 4.3 5 Este 17 Sudeste 0 -- -- 80
2020-10-03 09:00:00 2.5 8 Sudeste 20 Oeste 0 -- -- 83
2020-10-03 08:00:00 1.8 0 Calma 16 Oeste 0 -- -- 84
2020-10-03 07:00:00 2.6 18 Oeste 30 Oeste 0 -- -- 82
2020-10-03 06:00:00 2.6 9 Oeste 36 Oeste 0 -- -- 80
2020-10-03 05:00:00 1.7 6 Oeste 17 Oeste 0 -- -- 85
2020-10-03 04:00:00 1.6 5 Oeste 18 Oeste 0 -- -- 84
2020-10-03 03:00:00 2.9 6 Oeste 29 Oeste 0 -- -- 79
2020-10-03 02:00:00 3.2 12 Oeste 30 Oeste 0 -- -- 80
2020-10-03 01:00:00 3.1 7 Oeste 24 Oeste 0 -- -- 79
2020-10-03 00:00:00 3 11 Noroeste 30 Oeste 0 -- -- 80
2020-10-02 23:00:00 1.2 8 Noroeste 19 Oeste 0 -- -- 90
2020-10-02 22:00:00 1.6 3 Sudoeste 21 Oeste 0 -- -- 83
2020-10-02 21:00:00 3 5 Sur 27 Oeste 0 -- -- 77
2020-10-02 20:00:00 3.9 9 Oeste 20 Oeste 0 -- -- 76
2020-10-02 19:00:00 5.1 2 Norte 23 Norte 0 -- -- 80
2020-10-02 18:00:00 5.9 7 Noroeste 22 Noroeste 0 -- -- 84
2020-10-02 17:00:00 5.8 8 Oeste 24 Oeste 0 -- -- 87
2020-10-02 16:00:00 4.5 14 Norte 31 Noroeste 0 -- -- 82
2020-10-02 15:00:00 4.3 15 Norte 44 Norte 0 -- -- 84
2020-10-02 14:00:00 6.1 21 Norte 45 Norte 0 -- -- 80
2020-10-02 13:00:00 5.7 9 Norte 22 Norte 0 -- -- 91
2020-10-02 12:00:00 3.5 6 Norte 32 Noroeste 0 -- -- 92
2020-10-02 11:00:00 5 16 Norte 35 Noroeste 0 -- -- 87
2020-10-02 10:00:00 6.7 14 Oeste 46 Noroeste 0 -- -- 88
2020-10-02 09:00:00 8.2 13 Oeste 42 Noroeste 0 -- -- 90
2020-10-02 08:00:00 10 19 Oeste 44 Sudoeste 0 -- -- 92
2020-10-02 07:00:00 9.8 12 Sudoeste 50 Sudoeste 0 -- -- 94
2020-10-02 06:00:00 9.4 20 Sudoeste 45 Sudoeste 0 -- -- 94
2020-10-02 05:00:00 8.8 17 Sur 40 Sudoeste 0 -- -- 94
2020-10-02 04:00:00 8.4 15 Sur 42 Sudoeste 0 -- -- 92
2020-10-02 03:00:00 8.3 13 Sur 30 Sur 0.6 -- -- 90
2020-10-02 02:00:00 9 13 Sudoeste 45 Sudoeste 0.2 -- -- 82
2020-10-02 01:00:00 10.4 28 Sudoeste 56 Sudoeste 0 -- -- 70
2020-10-02 00:00:00 11.1 27 Oeste 54 Oeste 0 -- -- 64
2020-10-01 23:00:00 11.4 33 Oeste 54 Sudoeste 0 -- -- 62
2020-10-01 22:00:00 11.5 15 Noroeste 45 Oeste 0 -- -- 63
2020-10-01 21:00:00 11.6 23 Oeste 50 Oeste 0 -- -- 62
2020-10-01 20:00:00 11.4 4 Oeste 27 Sudoeste 0 -- -- 65
2020-10-01 19:00:00 12.5 5 Sudoeste 24 Oeste 0 -- -- 63
2020-10-01 18:00:00 13.6 14 Sudoeste 27 Sudoeste 0 -- -- 58
2020-10-01 17:00:00 15.2 13 Oeste 32 Sudoeste 0 -- -- 53
2020-10-01 16:00:00 15.1 20 Oeste 33 Oeste 0 -- -- 56
2020-10-01 15:00:00 14.9 21 Sudoeste 35 Oeste 0 -- -- 60
2020-10-01 14:00:00 14.5 10 Sudoeste 29 Oeste 0 -- -- 66
2020-10-01 13:00:00 16.7 13 Sudoeste 24 Oeste 0 -- -- 57
2020-10-01 12:00:00 14.6 8 Norte 14 Norte 0 -- -- 61
2020-10-01 11:00:00 14 6 Sur 15 Sudeste 0 -- -- 63
2020-10-01 10:00:00 10.8 4 Sur 13 Norte 0 -- -- 72
2020-10-01 09:00:00 6.5 0 Calma 7 Norte 0 -- -- 83
2020-10-01 08:00:00 5.6 2 Noroeste 6 Sur 0 -- -- 82
2020-10-01 07:00:00 6.4 0 Calma 10 Noroeste 0 -- -- 79
2020-10-01 06:00:00 8.2 4 Sudoeste 10 Sudoeste 0 -- -- 76
2020-10-01 05:00:00 8 0 Calma 9 Sudeste 0 -- -- 80
2020-10-01 04:00:00 8.1 3 Sudeste 6 Sudeste 0 -- -- 80
2020-10-01 03:00:00 7.5 0 Calma 8 Norte 0 -- -- 78
2020-10-01 02:00:00 7.9 0 Calma 15 Sudoeste 0 -- -- 75
2020-10-01 01:00:00 8.2 2 Norte 13 Norte 0 -- -- 72
2020-10-01 00:00:00 8.8 3 Noroeste 12 Noroeste 0 -- -- 70